Terminal Aerodrome Forecast
Issued by NWS Caribou, ME

Home | Current Version | Previous Version | Text Only | Print | Product List | Glossary On
Versions: 1 2 3 4 5 6 7 8 9 10 11 12 13 14 15 16 17
651
FTUS41 KCAR 121733
TAFBGR
TAF
KBGR 121733Z 1218/1318 29008KT P6SM FEW060
     FM130400 12004KT P6SM BKN080
     FM130800 09006KT 2SM -SN OVC025
     FM131200 05008KT 2SM -SN SCT008 OVC012=

USA.gov is the U.S. government's official web portal to all federal, state and local government web resources and services.